Time;durP1;ratioP1;P1;durP2;ratioP2;P2;SDS_P1;SDS_P2;PMS_P1;PMS_P2;Temp;Humidity;BMP_temperature;BMP_pressure;BME280_temperature;BME280_humidity;BME280_pressure;Samples;Min_cycle;Max_cycle;Signal;HPM_P1;HPM_P2
2021/03/13 00:01:56;;;;;;;265.55;128.32;;;;;;;5.08;62.23;94869.00;4918955;29;20043;-81
2021/03/13 00:04:21;;;;;;;352.65;163.40;;;;;;;5.00;62.60;94878.69;4927269;29;20484;-81
2021/03/13 00:06:47;;;;;;;400.85;198.10;;;;;;;4.95;62.85;94878.50;4931231;29;20559;-81
2021/03/13 00:09:12;;;;;;;443.70;229.82;;;;;;;4.88;62.93;94867.34;4927098;29;20036;-81
2021/03/13 00:11:37;;;;;;;400.90;196.18;;;;;;;4.87;63.70;94870.94;4918265;29;20036;-81
2021/03/13 00:14:03;;;;;;;378.45;178.55;;;;;;;4.90;63.01;94866.19;4916482;29;20028;-83
2021/03/13 00:16:28;;;;;;;409.35;192.80;;;;;;;4.94;63.25;94866.59;4915002;23;20115;-82
2021/03/13 00:18:54;;;;;;;391.00;185.68;;;;;;;4.98;63.44;94857.47;5702119;23;20014;-82
2021/03/13 00:21:19;;;;;;;319.85;158.23;;;;;;;5.08;62.52;94857.91;4936768;29;20047;-82
2021/03/13 00:23:45;;;;;;;308.85;147.38;;;;;;;5.13;62.91;94853.75;4903248;29;20515;-82
2021/03/13 00:26:10;;;;;;;314.05;144.90;;;;;;;5.11;62.41;94862.66;4930321;29;20052;-82
2021/03/13 00:28:36;;;;;;;320.20;153.23;;;;;;;5.09;63.08;94864.66;4939958;29;20079;-82
2021/03/13 00:31:01;;;;;;;308.33;150.98;;;;;;;5.05;62.84;94858.31;4901467;29;20040;-83
2021/03/13 00:33:28;;;;;;;309.65;148.68;;;;;;;5.06;63.17;94865.84;4878504;29;20040;-83
2021/03/13 00:35:54;;;;;;;316.77;158.05;;;;;;;5.02;63.39;94853.50;4872169;29;20032;-83
2021/03/13 00:38:21;;;;;;;334.60;152.10;;;;;;;5.10;62.95;94845.63;4874783;29;20028;-82
2021/03/13 00:40:50;;;;;;;303.90;142.27;;;;;;;5.11;63.16;94847.19;4898282;29;20047;-82
2021/03/13 00:43:16;;;;;;;278.40;132.00;;;;;;;5.07;62.65;94846.00;4896485;29;20032;-82
2021/03/13 00:45:42;;;;;;;282.83;129.52;;;;;;;5.15;62.71;94843.22;4867085;29;20040;-82
2021/03/13 00:48:07;;;;;;;283.17;133.68;;;;;;;5.22;62.97;94846.63;4898645;29;20393;-83
2021/03/13 00:50:35;;;;;;;282.80;130.23;;;;;;;5.28;62.46;94847.59;4893866;29;20040;-83
2021/03/13 00:53:01;;;;;;;251.93;125.50;;;;;;;5.25;62.47;94843.66;4901084;29;20044;-84
2021/03/13 00:55:27;;;;;;;247.77;118.32;;;;;;;5.27;62.65;94851.97;4868167;29;20160;-82
2021/03/13 00:57:52;;;;;;;210.80;100.30;;;;;;;5.38;61.70;94832.53;4886912;29;20060;-83
2021/03/13 01:00:20;;;;;;;225.18;107.10;;;;;;;5.37;61.80;94831.75;4875702;29;20032;-82
2021/03/13 01:02:46;;;;;;;254.77;115.07;;;;;;;5.25;62.45;94837.69;4903300;29;20068;-83
2021/03/13 01:05:12;;;;;;;238.05;112.60;;;;;;;5.22;63.11;94823.41;4901099;29;20028;-83
2021/03/13 01:07:37;;;;;;;247.90;113.82;;;;;;;5.28;62.77;94822.63;4893178;29;20043;-83
2021/03/13 01:10:16;;;;;;;247.05;114.30;;;;;;;5.33;62.19;94817.66;4886755;29;20043;-83
2021/03/13 01:12:41;;;;;;;237.13;110.38;;;;;;;5.29;62.49;94807.94;4915942;29;20028;-82
2021/03/13 01:15:09;;;;;;;232.55;104.03;;;;;;;5.27;62.58;94810.72;4885014;29;20051;-82
2021/03/13 01:17:35;;;;;;;223.50;99.30;;;;;;;5.39;62.51;94801.41;4869438;29;20064;-82
2021/03/13 01:20:00;;;;;;;203.63;91.47;;;;;;;5.46;61.71;94798.81;4901361;29;20043;-83
2021/03/13 01:22:26;;;;;;;232.15;104.38;;;;;;;5.40;62.70;94803.00;4901215;29;20036;-83
2021/03/13 01:24:51;;;;;;;261.92;110.32;;;;;;;5.40;62.88;94805.56;4899720;29;20036;-83
2021/03/13 01:29:52;;;;;;;239.68;106.53;;;;;;;5.46;62.23;94819.44;5750497;23;20052;-83
2021/03/13 01:34:52;;;;;;;218.05;94.00;;;;;;;5.56;62.11;94819.03;5797024;23;20509;-83
2021/03/13 01:37:20;;;;;;;199.45;90.68;;;;;;;5.55;62.29;94814.88;4946537;29;20045;-83
2021/03/13 01:39:46;;;;;;;207.13;87.90;;;;;;;5.56;62.64;94811.31;4937424;29;20550;-83
2021/03/13 01:42:11;;;;;;;166.23;73.15;;;;;;;5.61;61.93;94811.50;4936654;29;20102;-82
2021/03/13 01:44:36;;;;;;;205.88;93.38;;;;;;;5.55;62.21;94802.78;4928289;29;20126;-82
2021/03/13 01:47:02;;;;;;;173.15;82.05;;;;;;;5.50;62.33;94812.09;4955186;29;20091;-81
2021/03/13 01:49:29;;;;;;;182.13;84.45;;;;;;;5.51;61.76;94808.50;4921549;29;20027;-80
2021/03/13 01:51:55;;;;;;;161.13;75.47;;;;;;;5.65;62.28;94797.19;4936464;29;20063;-82
2021/03/13 01:54:20;;;;;;;139.20;68.07;;;;;;;5.60;61.89;94802.97;4904858;29;20099;-81
2021/03/13 01:56:48;;;;;;;140.43;67.40;;;;;;;5.63;61.76;94794.03;4921194;29;20043;-82
2021/03/13 01:59:13;;;;;;;175.10;77.50;;;;;;;5.67;61.83;94787.47;4921065;29;20055;-82
2021/03/13 02:01:39;;;;;;;180.80;80.38;;;;;;;5.75;61.97;94789.03;4904802;29;20462;-83
2021/03/13 02:04:05;;;;;;;140.65;67.03;;;;;;;5.71;61.49;94791.25;4935820;29;20035;-83
2021/03/13 02:06:30;;;;;;;141.90;66.63;;;;;;;5.82;61.00;94782.84;4936392;29;20081;-82
2021/03/13 02:09:21;;;;;;;135.43;67.70;;;;;;;5.85;60.82;94785.03;4931146;29;20038;-83
2021/03/13 02:12:06;;;;;;;145.88;70.38;;;;;;;5.96;60.39;94779.28;4914483;29;20082;-83
2021/03/13 02:14:50;;;;;;;131.75;64.03;;;;;;;5.94;60.83;94781.28;4921207;29;20086;-82
2021/03/13 02:17:22;;;;;;;135.02;62.10;;;;;;;5.95;60.95;94774.31;4954261;29;20115;-82
2021/03/13 02:20:00;;;;;;;128.68;60.88;;;;;;;5.94;61.70;94781.28;4921586;29;20043;-83
2021/03/13 02:22:25;;;;;;;123.78;60.17;;;;;;;5.96;61.24;94768.94;4952233;29;20038;-83
2021/03/13 02:24:58;;;;;;;112.10;56.78;;;;;;;6.05;61.13;94776.47;4905679;29;20105;-82
2021/03/13 02:27:42;;;;;;;126.97;63.28;;;;;;;5.97;61.48;94770.53;4937454;29;20035;-83
2021/03/13 02:30:12;;;;;;;126.40;58.15;;;;;;;6.08;61.50;94760.59;4955143;29;20035;-82
2021/03/13 02:32:45;;;;;;;87.68;46.58;;;;;;;6.01;61.23;94771.69;4954333;29;20031;-82
2021/03/13 02:35:17;;;;;;;96.38;49.55;;;;;;;6.04;61.79;94765.38;4921969;29;20097;-83
2021/03/13 02:37:46;;;;;;;80.43;43.40;;;;;;;6.08;60.88;94773.50;4937946;29;20130;-83
2021/03/13 02:40:15;;;;;;;115.47;59.13;;;;;;;6.11;61.67;94773.88;4922222;29;20090;-83
2021/03/13 02:42:55;;;;;;;126.20;64.20;;;;;;;6.04;61.96;94773.13;4921474;29;20035;-83
2021/03/13 02:45:22;;;;;;;133.27;60.67;;;;;;;6.08;61.93;94770.91;4922711;29;20050;-82
2021/03/13 02:47:48;;;;;;;110.80;58.70;;;;;;;6.06;62.30;94767.75;4923988;29;20062;-83
2021/03/13 02:50:13;;;;;;;139.77;61.72;;;;;;;5.99;61.68;94768.53;4930268;29;20063;-83
2021/03/13 02:52:39;;;;;;;123.55;60.67;;;;;;;6.01;62.32;94761.38;4922941;29;20087;-82
2021/03/13 02:55:05;;;;;;;111.40;56.22;;;;;;;6.13;61.72;94753.00;4906930;29;21079;-83
2021/03/13 02:57:30;;;;;;;148.82;68.63;;;;;;;6.04;61.96;94751.66;4924063;29;20514;-82
2021/03/13 02:59:56;;;;;;;115.88;57.72;;;;;;;5.97;62.06;94754.25;4930518;29;20032;-82
2021/03/13 03:02:21;;;;;;;117.72;55.95;;;;;;;5.87;62.40;94759.03;4923124;29;20047;-83
2021/03/13 03:04:47;;;;;;;111.35;54.58;;;;;;;5.92;61.71;94751.50;4932201;29;20031;-82
2021/03/13 03:07:13;;;;;;;118.95;55.88;;;;;;;6.04;61.78;94754.25;4924121;29;20031;-82
2021/03/13 03:09:38;;;;;;;109.60;58.40;;;;;;;5.90;62.28;94748.34;4939636;29;20047;-82
2021/03/13 03:12:04;;;;;;;109.03;53.72;;;;;;;5.97;61.59;94755.06;4923316;29;20086;-82
2021/03/13 03:14:30;;;;;;;112.35;55.42;;;;;;;5.86;62.75;94753.09;4923086;29;20125;-81
2021/03/13 03:16:59;;;;;;;110.47;50.13;;;;;;;5.88;61.87;94755.47;4933782;29;20042;-81
2021/03/13 03:19:26;;;;;;;99.03;52.15;;;;;;;5.92;61.57;94752.31;4926700;29;20032;-81
2021/03/13 03:21:51;;;;;;;110.55;54.60;;;;;;;5.90;61.61;94749.13;4943288;29;20110;-81
2021/03/13 03:24:17;;;;;;;114.25;55.15;;;;;;;5.96;61.51;94750.88;4932886;29;20526;-80
2021/03/13 03:26:42;;;;;;;129.13;56.80;;;;;;;5.89;61.85;94751.88;4922300;29;20046;-81
2021/03/13 03:29:08;;;;;;;105.32;54.15;;;;;;;5.92;62.40;94746.34;4938499;29;20042;-81
2021/03/13 03:31:34;;;;;;;109.75;53.33;;;;;;;6.03;61.32;94752.66;4938901;29;20038;-80
2021/03/13 03:34:00;;;;;;;100.53;51.67;;;;;;;6.00;61.78;94752.06;4935814;23;20047;-80
2021/03/13 03:36:25;;;;;;;104.65;55.92;;;;;;;6.05;62.13;94750.66;4945286;29;20522;-81
2021/03/13 03:38:57;;;;;;;109.22;58.78;;;;;;;5.99;62.08;94760.78;4953754;29;20086;-80
2021/03/13 03:41:23;;;;;;;115.72;59.28;;;;;;;5.95;62.88;94767.38;4923590;29;20131;-81
2021/03/13 03:43:54;;;;;;;113.97;60.20;;;;;;;5.89;63.26;94763.00;4942398;29;20047;-81
2021/03/13 03:46:19;;;;;;;105.35;59.90;;;;;;;5.98;63.26;94766.16;4913136;29;20063;-82
2021/03/13 03:48:45;;;;;;;120.35;63.35;;;;;;;6.07;62.43;94770.13;4920355;29;20039;-81
2021/03/13 03:51:14;;;;;;;120.50;68.60;;;;;;;6.10;62.51;94758.59;4904020;29;20912;-81
2021/03/13 03:53:40;;;;;;;123.70;67.93;;;;;;;6.18;62.02;94754.00;4915111;29;20118;-81
2021/03/13 03:56:06;;;;;;;119.22;68.10;;;;;;;6.11;61.96;94760.97;4921739;29;20039;-82
2021/03/13 03:58:43;;;;;;;120.45;69.43;;;;;;;5.99;62.38;94760.78;4938039;29;20063;-82
2021/03/13 04:01:09;;;;;;;117.95;62.45;;;;;;;6.11;61.93;94752.41;4931817;29;20046;-82
2021/03/13 04:03:38;;;;;;;121.43;64.75;;;;;;;6.14;61.71;94765.72;5140300;23;20040;-82
2021/03/13 04:06:06;;;;;;;113.13;62.55;;;;;;;6.07;62.12;94777.06;4938276;29;20423;-82
2021/03/13 04:08:32;;;;;;;106.68;60.08;;;;;;;6.10;62.15;94781.81;4924828;29;20096;-82
2021/03/13 04:10:57;;;;;;;126.22;63.95;;;;;;;6.24;61.69;94785.94;4923133;28;20059;-82
2021/03/13 04:13:23;;;;;;;120.80;61.10;;;;;;;6.18;61.32;94786.72;4932119;29;20044;-82
2021/03/13 04:15:49;;;;;;;113.60;61.47;;;;;;;6.11;62.07;94785.97;4917093;29;20135;-83
2021/03/13 04:18:17;;;;;;;113.57;60.28;;;;;;;6.02;63.13;94772.53;5136814;23;20883;-82
2021/03/13 04:20:45;;;;;;;116.13;58.30;;;;;;;6.09;63.17;94772.50;4956611;23;20119;-83
2021/03/13 04:23:11;;;;;;;111.15;57.95;;;;;;;6.01;62.85;94756.22;4936389;29;20043;-82
2021/03/13 04:25:36;;;;;;;105.07;56.08;;;;;;;5.96;63.18;94770.75;4920029;29;20046;-82
2021/03/13 04:28:02;;;;;;;111.38;54.83;;;;;;;6.05;62.61;94771.31;4917334;29;20039;-81
2021/03/13 04:30:31;;;;;;;99.75;54.78;;;;;;;6.14;62.36;94770.06;4919225;29;20067;-80
2021/03/13 04:32:57;;;;;;;106.10;57.40;;;;;;;6.15;62.64;94769.06;4950239;29;20063;-82
2021/03/13 04:35:25;;;;;;;107.15;58.88;;;;;;;6.05;62.99;94771.31;4936902;29;20031;-82
2021/03/13 04:37:51;;;;;;;106.00;61.13;;;;;;;5.89;63.75;94765.59;4934764;29;20045;-81
2021/03/13 04:40:16;;;;;;;110.43;59.38;;;;;;;5.88;63.65;94755.47;4920837;29;20436;-81
2021/03/13 04:42:43;;;;;;;109.40;62.88;;;;;;;5.87;63.96;94759.84;4929372;29;20126;-81
2021/03/13 04:45:09;;;;;;;114.78;60.20;;;;;;;5.88;64.03;94764.00;4904004;29;20044;-81
2021/03/13 04:47:36;;;;;;;104.03;54.95;;;;;;;5.95;63.33;94767.38;4919569;29;20035;-81
2021/03/13 04:50:02;;;;;;;99.18;53.72;;;;;;;5.96;63.60;94768.94;4919285;29;20035;-82
2021/03/13 04:52:28;;;;;;;119.55;64.05;;;;;;;5.90;62.24;94764.63;4919188;29;20039;-81
2021/03/13 04:54:53;;;;;;;132.35;70.90;;;;;;;5.73;63.67;94768.59;4918937;29;20091;-81
2021/03/13 04:57:19;;;;;;;133.77;70.68;;;;;;;5.62;63.83;94764.84;4918424;29;20040;-82
2021/03/13 04:59:44;;;;;;;133.32;74.35;;;;;;;5.54;64.36;94764.28;4918382;29;20174;-82
2021/03/13 05:02:10;;;;;;;110.50;59.28;;;;;;;5.67;63.63;94764.25;4934042;29;20059;-81
2021/03/13 05:04:35;;;;;;;129.57;65.03;;;;;;;5.67;62.92;94770.19;4919636;29;20032;-82
2021/03/13 05:07:01;;;;;;;114.13;57.03;;;;;;;5.65;63.43;94766.22;4919878;29;20077;-81
2021/03/13 05:09:27;;;;;;;103.53;58.20;;;;;;;5.74;63.08;94770.19;4919318;29;20135;-81
2021/03/13 05:11:52;;;;;;;112.78;59.72;;;;;;;5.69;62.82;94772.56;4934967;29;20032;-81
2021/03/13 05:14:18;;;;;;;125.28;64.03;;;;;;;5.64;63.35;94772.38;4903338;29;20091;-83
2021/03/13 05:16:43;;;;;;;113.97;61.17;;;;;;;5.80;62.75;94779.69;4939107;29;20032;-82
2021/03/13 05:19:09;;;;;;;107.65;56.55;;;;;;;6.01;61.16;94776.88;4933673;29;20044;-81
2021/03/13 05:21:34;;;;;;;110.35;57.38;;;;;;;6.23;61.04;94785.16;4930448;29;20497;-81
2021/03/13 05:24:00;;;;;;;114.35;59.78;;;;;;;6.38;59.89;94787.47;4933057;29;20114;-81
2021/03/13 05:26:25;;;;;;;124.07;59.42;;;;;;;6.43;59.42;94792.78;4931677;29;20551;-82
2021/03/13 05:28:51;;;;;;;111.35;60.17;;;;;;;6.44;60.07;94804.72;4918496;29;20110;-81
2021/03/13 05:31:16;;;;;;;123.68;58.95;;;;;;;6.45;59.81;94803.72;4933986;29;20500;-80
2021/03/13 05:33:42;;;;;;;114.40;59.45;;;;;;;6.47;59.71;94801.72;4903272;29;20046;-82
2021/03/13 05:36:08;;;;;;;117.68;60.25;;;;;;;6.51;59.21;94805.50;4934883;29;20043;-82
2021/03/13 05:38:33;;;;;;;123.45;60.47;;;;;;;6.69;59.68;94801.41;4936727;29;20063;-82
2021/03/13 05:40:58;;;;;;;113.35;59.08;;;;;;;6.79;59.23;94809.50;4934190;29;20082;-81
2021/03/13 05:43:24;;;;;;;125.90;57.75;;;;;;;6.83;58.98;94798.56;4919106;29;20040;-82
2021/03/13 05:45:49;;;;;;;115.65;62.83;;;;;;;7.00;59.39;94800.63;4936230;29;20079;-82
2021/03/13 05:48:15;;;;;;;121.60;64.22;;;;;;;7.15;58.58;94803.69;4919262;29;20543;-83
2021/03/13 05:50:40;;;;;;;131.55;70.10;;;;;;;7.07;59.27;94814.28;4904742;29;20040;-83
2021/03/13 05:53:06;;;;;;;159.82;85.15;;;;;;;7.15;58.81;94804.47;4936183;29;20028;-81
2021/03/13 05:55:31;;;;;;;185.50;92.57;;;;;;;7.16;58.29;94813.84;4943425;29;20126;-82
2021/03/13 05:57:57;;;;;;;192.85;99.25;;;;;;;7.18;58.85;94809.25;4919466;29;20044;-82
2021/03/13 06:00:23;;;;;;;200.43;98.45;;;;;;;7.28;58.07;94802.78;4936043;29;20054;-84
2021/03/13 06:02:49;;;;;;;170.35;89.50;;;;;;;7.46;58.01;94800.25;4911726;29;20044;-84
2021/03/13 06:05:15;;;;;;;159.25;79.43;;;;;;;7.58;57.18;94808.13;4919482;29;20036;-84
2021/03/13 06:07:44;;;;;;;159.95;83.68;;;;;;;7.60;57.31;94804.31;4904174;29;20050;-82
2021/03/13 06:10:13;;;;;;;135.15;75.30;;;;;;;7.85;56.68;94799.09;4919835;29;20032;-82
2021/03/13 06:12:39;;;;;;;160.98;84.95;;;;;;;7.90;56.49;94788.09;4928448;29;20034;-83
2021/03/13 06:15:05;;;;;;;168.65;90.22;;;;;;;8.09;56.63;94800.03;4936972;29;20032;-82
2021/03/13 06:17:52;;;;;;;165.13;87.82;;;;;;;8.79;54.76;94815.97;4935089;28;20039;-80
2021/03/13 06:20:21;;;;;;;167.25;93.20;;;;;;;9.45;53.21;94822.78;4931230;29;20120;-82
2021/03/13 06:22:46;;;;;;;173.70;93.30;;;;;;;10.00;52.20;94822.44;4905229;29;20526;-82
2021/03/13 06:25:28;;;;;;;165.57;90.70;;;;;;;10.44;49.71;94828.84;4934926;29;20024;-82
2021/03/13 06:27:59;;;;;;;176.43;97.07;;;;;;;10.68;49.62;94826.16;4936061;29;20126;-84
2021/03/13 06:30:27;;;;;;;174.52;98.60;;;;;;;10.87;48.28;94826.78;4937450;29;20028;-83
2021/03/13 06:32:53;;;;;;;202.10;109.72;;;;;;;11.04;48.58;94832.81;4934872;29;20074;-83
2021/03/13 06:35:29;;;;;;;184.88;107.60;;;;;;;10.95;47.57;94829.00;4903194;29;20440;-83
2021/03/13 06:37:58;;;;;;;187.85;107.45;;;;;;;10.74;47.92;94833.84;4919419;29;20223;-82
2021/03/13 06:40:34;;;;;;;147.57;87.85;;;;;;;10.73;47.76;94837.44;4950151;29;20035;-80
2021/03/13 06:43:01;;;;;;;182.25;95.63;;;;;;;10.75;47.22;94843.22;4953517;29;20491;-81
2021/03/13 06:45:27;;;;;;;177.05;96.65;;;;;;;10.72;48.17;94848.88;4941965;29;20083;-83
2021/03/13 06:47:53;;;;;;;177.63;95.40;;;;;;;10.50;48.48;94842.72;4935241;29;20016;-82
2021/03/13 06:50:26;;;;;;;167.88;92.53;;;;;;;10.61;47.90;94839.31;4931059;29;20153;-84
2021/03/13 06:52:53;;;;;;;166.50;91.63;;;;;;;10.66;48.82;94844.59;4905829;29;20042;-82
2021/03/13 06:55:28;;;;;;;167.60;96.20;;;;;;;10.96;48.45;94841.00;4926116;29;20465;-83
2021/03/13 07:00:31;;;;;;;130.95;72.72;;;;;;;11.64;47.05;94858.28;5304024;23;20122;-84
2021/03/13 07:03:06;;;;;;;114.85;68.80;;;;;;;11.96;45.98;94856.72;4937414;29;20132;-83
2021/03/13 07:05:31;;;;;;;107.57;59.35;;;;;;;12.25;43.92;94851.38;4918274;29;20110;-82
2021/03/13 07:07:57;;;;;;;105.15;59.15;;;;;;;12.55;43.96;94850.97;4953097;23;20527;-83
2021/03/13 07:10:28;;;;;;;95.72;57.85;;;;;;;12.68;42.98;94852.41;4934180;29;20032;-83
2021/03/13 07:12:54;;;;;;;102.97;57.58;;;;;;;12.68;43.32;94847.97;4909661;29;20023;-82
2021/03/13 07:15:24;;;;;;;93.88;56.97;;;;;;;12.86;43.15;94846.91;4930419;29;20080;-82
2021/03/13 07:17:49;;;;;;;93.18;55.08;;;;;;;13.12;42.64;94856.56;4941339;29;20115;-82
2021/03/13 07:20:18;;;;;;;87.00;55.90;;;;;;;13.15;42.29;94858.69;4930482;29;20137;-82
2021/03/13 07:22:43;;;;;;;87.90;52.45;;;;;;;13.09;41.58;94857.06;4901314;29;20032;-82
2021/03/13 07:25:10;;;;;;;85.68;50.85;;;;;;;13.12;41.92;94848.72;4914590;29;20046;-82
2021/03/13 07:27:40;;;;;;;75.03;47.20;;;;;;;13.34;41.05;94850.53;4911568;29;20040;-82
2021/03/13 07:30:10;;;;;;;79.18;47.17;;;;;;;13.44;39.84;94843.56;4908941;29;20511;-84
2021/03/13 07:32:36;;;;;;;72.32;42.08;;;;;;;13.47;39.74;94856.13;4928496;29;20040;-87
2021/03/13 07:35:03;;;;;;;70.60;42.60;;;;;;;13.42;39.27;94852.69;4907872;29;20042;-85
2021/03/13 07:37:28;;;;;;;76.65;44.83;;;;;;;13.66;39.94;94861.78;4931051;29;20397;-84
2021/03/13 07:42:40;;;;;;;77.80;43.22;;;;;;;13.82;39.32;94858.25;5069690;23;20065;-85
2021/03/13 07:45:07;;;;;;;70.82;40.47;;;;;;;13.97;38.74;94843.69;4965663;29;20098;-84
2021/03/13 07:47:32;;;;;;;70.13;42.33;;;;;;;13.95;38.60;94851.78;4933102;29;20063;-85
2021/03/13 07:49:58;;;;;;;70.57;41.25;;;;;;;14.13;38.47;94840.13;4931525;29;20028;-85
2021/03/13 07:52:23;;;;;;;66.70;40.35;;;;;;;14.25;38.37;94845.19;4938855;28;20054;-84
2021/03/13 07:54:49;;;;;;;70.75;43.25;;;;;;;14.41;37.55;94854.69;4980557;23;20048;-83
2021/03/13 07:57:15;;;;;;;73.05;42.67;;;;;;;14.38;37.38;94840.28;4934693;28;20043;-84
2021/03/13 07:59:47;;;;;;;71.80;41.90;;;;;;;14.39;37.37;94852.31;4925864;29;20040;-84
2021/03/13 08:02:28;;;;;;;70.80;39.90;;;;;;;14.45;37.28;94855.00;4924730;29;20029;-83
2021/03/13 08:05:17;;;;;;;65.80;42.08;;;;;;;14.50;37.05;94855.81;4925927;29;20087;-82
2021/03/13 08:07:59;;;;;;;67.03;37.97;;;;;;;14.54;37.66;94861.31;4921838;29;20044;-79
2021/03/13 08:10:52;;;;;;;55.53;36.25;;;;;;;14.45;36.91;94855.78;4922106;29;20098;-81
2021/03/13 08:13:26;;;;;;;63.58;39.38;;;;;;;14.30;36.92;94851.22;4919249;29;20075;-81
2021/03/13 08:16:01;;;;;;;69.03;39.15;;;;;;;14.26;37.64;94857.22;4922315;29;20063;-81
2021/03/13 08:18:39;;;;;;;74.10;45.55;;;;;;;14.22;37.84;94856.94;4905152;29;20052;-80
2021/03/13 08:21:20;;;;;;;73.75;45.58;;;;;;;14.09;38.60;94858.16;4918277;29;20500;-81
2021/03/13 08:23:49;;;;;;;78.22;43.92;;;;;;;14.10;39.41;94849.28;4917658;29;20461;-82
2021/03/13 08:26:14;;;;;;;90.25;46.92;;;;;;;14.29;38.01;94857.50;4915510;29;20122;-81
2021/03/13 08:28:46;;;;;;;77.10;46.90;;;;;;;13.95;38.45;94859.63;4899871;29;20028;-81
2021/03/13 08:31:24;;;;;;;78.73;47.60;;;;;;;13.73;39.63;94864.97;4916456;29;20032;-81
2021/03/13 08:33:55;;;;;;;91.47;51.17;;;;;;;13.56;40.22;94864.31;4918962;29;20088;-80
2021/03/13 08:36:25;;;;;;;79.32;45.00;;;;;;;13.69;39.61;94868.34;4921325;29;20079;-79
2021/03/13 08:38:55;;;;;;;73.53;42.95;;;;;;;13.76;39.48;94864.47;4896686;29;20105;-79
2021/03/13 08:41:42;;;;;;;63.25;40.58;;;;;;;13.82;38.52;94858.25;4925505;29;20028;-79
2021/03/13 08:44:26;;;;;;;64.10;33.85;;;;;;;13.17;39.14;94867.03;4921710;29;20050;-80
2021/03/13 08:46:58;;;;;;;73.85;34.03;;;;;;;12.98;39.63;94871.03;4916214;29;20107;-80
2021/03/13 08:49:27;;;;;;;66.82;39.17;;;;;;;13.05;39.78;94868.25;4916445;29;20136;-80
2021/03/13 08:52:05;;;;;;;67.68;37.05;;;;;;;13.02;39.82;94873.97;4916656;29;20126;-80
2021/03/13 08:54:39;;;;;;;56.00;33.60;;;;;;;13.31;39.47;94879.75;4923973;29;20087;-80
2021/03/13 08:57:09;;;;;;;62.15;35.78;;;;;;;13.60;38.99;94880.28;4919525;29;20039;-80
2021/03/13 08:59:35;;;;;;;60.95;37.05;;;;;;;13.88;39.05;94876.59;4918218;29;20052;-80
2021/03/13 09:02:07;;;;;;;66.30;36.00;;;;;;;13.89;38.65;94875.56;4903561;29;20043;-81
2021/03/13 09:04:33;;;;;;;;;;;;;;;13.78;38.77;94880.69;4902259;29;20135;-80
2021/03/13 09:07:00;;;;;;;55.03;35.88;;;;;;;13.81;40.15;94884.63;4916060;29;19923;-80
2021/03/13 09:09:27;;;;;;;66.80;36.50;;;;;;;14.00;39.64;94867.53;4900758;29;20062;-80
2021/03/13 09:11:59;;;;;;;67.60;37.22;;;;;;;14.15;38.37;94872.06;4900817;29;20036;-80
2021/03/13 09:14:25;;;;;;;66.65;37.50;;;;;;;14.22;39.04;94877.88;4915777;29;20039;-80
2021/03/13 09:16:50;;;;;;;57.50;35.60;;;;;;;14.19;38.97;94881.00;4900047;29;20119;-80
2021/03/13 09:19:19;;;;;;;65.10;35.58;;;;;;;13.61;39.22;94887.88;4900182;29;20543;-80
2021/03/13 09:21:55;;;;;;;57.50;35.42;;;;;;;13.33;41.05;94880.28;4900324;29;20028;-80
2021/03/13 09:24:20;;;;;;;63.55;34.97;;;;;;;13.43;40.76;94890.84;4915522;29;20412;-80
2021/03/13 09:26:59;;;;;;;57.95;34.75;;;;;;;13.28;40.80;94888.88;4917202;29;20048;-80
2021/03/13 09:29:32;;;;;;;58.92;34.13;;;;;;;13.16;42.31;94901.25;4900375;29;20028;-80
2021/03/13 09:31:58;;;;;;;58.42;32.15;;;;;;;12.77;44.83;94903.16;4900274;29;20099;-79
2021/03/13 09:34:24;;;;;;;54.75;31.60;;;;;;;12.38;45.77;94890.16;4915838;29;20082;-80
2021/03/13 09:36:50;;;;;;;55.03;30.33;;;;;;;12.26;45.09;94908.50;4900445;29;20043;-79
2021/03/13 09:39:28;;;;;;;55.67;30.60;;;;;;;11.89;47.66;94894.41;4892265;29;20033;-80
2021/03/13 09:42:04;;;;;;;41.90;24.27;;;;;;;11.75;47.24;94890.50;4897897;29;20041;-81
2021/03/13 09:45:03;;;;;;;39.60;22.95;;;;;;;11.55;47.75;94896.16;4899880;29;20120;-80
2021/03/13 09:47:39;;;;;;;40.47;24.13;;;;;;;11.28;47.62;94907.16;4887518;29;20052;-79
2021/03/13 09:50:08;;;;;;;40.88;23.73;;;;;;;11.34;48.80;94893.19;4918519;29;20028;-82
2021/03/13 09:52:37;;;;;;;42.88;25.60;;;;;;;11.36;48.19;94883.34;4919563;29;20032;-82
2021/03/13 09:55:06;;;;;;;42.40;25.55;;;;;;;11.35;46.90;94881.75;4911755;29;20448;-82
2021/03/13 09:57:32;;;;;;;47.20;26.00;;;;;;;11.29;47.39;94884.53;4917001;29;20032;-81
2021/03/13 10:00:03;;;;;;;44.10;25.42;;;;;;;11.09;48.04;94877.16;4914737;29;20036;-80
2021/03/13 10:02:29;;;;;;;45.40;24.50;;;;;;;11.16;47.23;94883.00;4915583;29;20046;-82
2021/03/13 10:04:54;;;;;;;41.83;26.45;;;;;;;11.41;47.60;94875.63;4917965;29;20044;-82
2021/03/13 10:07:20;;;;;;;56.33;24.60;;;;;;;11.76;46.78;94886.88;4900408;29;20036;-82
2021/03/13 10:09:55;;;;;;;37.50;22.67;;;;;;;12.01;46.57;94879.44;4916870;29;20531;-83
2021/03/13 10:12:28;;;;;;;49.30;25.88;;;;;;;12.15;45.48;94879.91;4908639;29;20037;-79
2021/03/13 10:14:54;;;;;;;42.70;25.02;;;;;;;12.49;44.74;94881.41;4916594;29;20040;-81
2021/03/13 10:17:20;;;;;;;38.17;23.50;;;;;;;12.75;44.39;94886.97;4900604;29;20039;-79
2021/03/13 10:19:45;;;;;;;48.35;23.17;;;;;;;13.00;44.30;94887.22;4913853;29;20027;-79
2021/03/13 10:22:18;;;;;;;39.58;23.25;;;;;;;13.31;43.38;94882.34;4913700;29;20036;-78
2021/03/13 10:24:48;;;;;;;44.58;22.17;;;;;;;13.39;42.69;94889.75;4899316;29;20055;-79
2021/03/13 10:27:27;;;;;;;34.83;20.05;;;;;;;12.99;44.37;94896.09;4902910;29;20068;-83
2021/03/13 10:30:01;;;;;;;38.25;18.83;;;;;;;12.70;45.04;94876.47;4905452;29;20037;-83
2021/03/13 10:32:28;;;;;;;37.55;19.63;;;;;;;12.81;44.46;94881.53;4892115;29;20036;-77
2021/03/13 10:35:26;;;;;;;39.75;18.58;;;;;;;12.88;44.81;94887.38;4917860;29;20114;-83
2021/03/13 10:37:53;;;;;;;29.15;18.85;;;;;;;13.03;44.90;94891.19;4909855;29;20508;-85
2021/03/13 10:40:29;;;;;;;30.33;18.10;;;;;;;12.96;45.05;94886.16;4918464;29;20061;-79
2021/03/13 10:43:30;;;;;;;41.45;17.85;;;;;;;12.85;45.18;94885.25;4917620;29;20032;-81
2021/03/13 10:45:55;;;;;;;35.33;16.50;;;;;;;12.73;45.84;94881.19;4907378;29;20467;-80
2021/03/13 10:48:24;;;;;;;25.15;15.25;;;;;;;12.70;46.37;94884.28;4919027;29;20571;-82
2021/03/13 10:50:50;;;;;;;27.63;15.27;;;;;;;12.65;46.94;94874.56;4900908;29;20040;-80
2021/03/13 10:53:38;;;;;;;24.80;15.10;;;;;;;12.83;46.76;94870.84;4925808;29;20036;-80
2021/03/13 10:56:05;;;;;;;29.92;16.58;;;;;;;12.98;46.85;94873.63;4917503;29;20066;-80
2021/03/13 10:58:34;;;;;;;33.90;17.52;;;;;;;12.99;46.78;94874.44;4902269;29;20060;-79
2021/03/13 11:01:00;;;;;;;25.70;14.27;;;;;;;12.95;46.50;94871.53;4901804;29;20033;-80
2021/03/13 11:03:26;;;;;;;29.02;14.98;;;;;;;13.03;47.05;94867.72;4899135;29;20051;-80
2021/03/13 11:05:52;;;;;;;27.40;15.80;;;;;;;13.18;47.02;94868.69;4892886;29;20059;-82
2021/03/13 11:08:21;;;;;;;27.08;12.05;;;;;;;13.43;44.37;94867.34;4916429;29;20051;-82
2021/03/13 11:10:47;;;;;;;13.80;10.32;;;;;;;13.44;43.12;94871.53;4915660;29;20036;-80
2021/03/13 11:13:12;;;;;;;23.10;11.07;;;;;;;13.37;43.40;94876.16;4892874;29;20080;-81
2021/03/13 11:15:38;;;;;;;16.40;8.98;;;;;;;13.39;43.52;94876.72;4897361;29;20493;-81
2021/03/13 11:18:04;;;;;;;22.00;9.30;;;;;;;13.40;43.62;94868.63;4914283;29;20032;-80
2021/03/13 11:20:30;;;;;;;11.18;8.18;;;;;;;13.37;43.04;94871.72;4914566;29;20044;-81
2021/03/13 11:22:55;;;;;;;12.75;7.57;;;;;;;13.41;42.77;94866.78;4899508;29;20036;-81
2021/03/13 11:25:21;;;;;;;12.18;8.10;;;;;;;13.36;42.60;94858.91;4899104;29;20039;-83
2021/03/13 11:27:46;;;;;;;12.30;8.65;;;;;;;13.34;43.24;94846.13;4900967;29;20040;-81
2021/03/13 11:30:12;;;;;;;13.20;8.27;;;;;;;13.44;43.22;94840.97;4918045;29;20028;-80
2021/03/13 11:32:38;;;;;;;18.13;9.93;;;;;;;13.65;42.96;94839.28;4922584;29;20032;-81
2021/03/13 11:35:05;;;;;;;26.88;14.35;;;;;;;13.81;43.49;94840.19;4936781;29;20090;-81